PWSweather.com
Personal Weather Stations
Station Observations
WATERF01
WaterfordIE

WaterfordIE

Lat: 52.2412507, Lon: -7.1414691

Elevation: 65

Station Type: Davis Vantage Vue

Latest ConditionsUpdated 8:10:01 PM GMT Friday, Aug 18, 2017
Currently Today's Max Today's Min Today's Average
Temperature 58.0°F14.4°C 62.3°F16.8°C 49.8°F9.9°C 56.6°F13.7°C
Dew Point 52.2°F11.2°C 55.2°F12.9°C 45.8°F7.7°C 50.5°F10.3°C
Winds 9.2 mph WNW14.8 kmh WNW 16.1 mph NW25.9 kmh NW - 6.3 mph 10.1 kmh
Wind Gusts 13.8 mph22.2 kmh 25.3 mph40.7 kmh - -
Humidity 81% 87% 66% 80%
Pressure 29.92 in1013.2 mb 29.92 in1013.2 mb 29.76 in1007.8 mb -
Precipitation - 0.08 in2.0 mm - -
Hour Temp Dew Point Humidity Winds Wind Gusts Pressure Precip Precip Rate Daily Precip Total
08:10 PM 58.0°F14.4°C 52.2°F11.2°C 81% 9.2 mph WNW14.8 kmh WNW 13.8 mph22.2 kmh 29.92 in1013.2 mb - 0.00 in0.0 mm 0.08 in2.0 mm
08:00 PM 58.2°F14.6°C 52.4°F11.3°C 81% 5.8 mph WNW9.3 kmh WNW 10.4 mph16.7 kmh 29.92 in1013.2 mb - 0.00 in0.0 mm 0.08 in2.0 mm
07:50 PM 58.1°F14.5°C 52.3°F11.3°C 81% 8.1 mph NW13.0 kmh NW 11.5 mph18.5 kmh 29.91 in1012.9 mb - 0.00 in0.0 mm 0.08 in2.0 mm
07:40 PM 58.2°F14.6°C 52.4°F11.3°C 81% 8.1 mph WNW13.0 kmh WNW 15.0 mph24.1 kmh 29.90 in1012.5 mb - 0.00 in0.0 mm 0.08 in2.0 mm
07:30 PM 58.5°F14.7°C 52.6°F11.4°C 81% 6.9 mph WNW11.1 kmh WNW 15.0 mph24.1 kmh 29.89 in1012.2 mb - 0.00 in0.0 mm 0.08 in2.0 mm
07:20 PM 58.8°F14.9°C 52.7°F11.5°C 80% 9.2 mph WNW14.8 kmh WNW 16.1 mph25.9 kmh 29.88 in1011.9 mb - 0.00 in0.0 mm 0.08 in2.0 mm
07:10 PM 59.3°F15.2°C 52.8°F11.6°C 79% 8.1 mph NW13.0 kmh NW 15.0 mph24.1 kmh 29.87 in1011.5 mb - 0.00 in0.0 mm 0.08 in2.0 mm
07:00 PM 59.8°F15.4°C 52.9°F11.6°C 78% 8.1 mph WNW13.0 kmh WNW 11.5 mph18.5 kmh 29.87 in1011.5 mb - 0.00 in0.0 mm 0.08 in2.0 mm
06:50 PM 59.6°F15.3°C 53.4°F11.9°C 80% 8.1 mph WNW13.0 kmh WNW 13.8 mph22.2 kmh 29.87 in1011.5 mb - 0.00 in0.0 mm 0.08 in2.0 mm
06:40 PM 59.6°F15.3°C 53.4°F11.9°C 80% 6.9 mph WNW11.1 kmh WNW 11.5 mph18.5 kmh 29.86 in1011.2 mb - 0.00 in0.0 mm 0.08 in2.0 mm
06:30 PM 59.9°F15.5°C 53.4°F11.9°C 79% 8.1 mph WNW13.0 kmh WNW 13.8 mph22.2 kmh 29.86 in1011.2 mb - 0.00 in0.0 mm 0.08 in2.0 mm
06:20 PM 60.4°F15.8°C 53.9°F12.2°C 79% 5.8 mph WNW9.3 kmh WNW 11.5 mph18.5 kmh 29.85 in1010.8 mb - 0.00 in0.0 mm 0.08 in2.0 mm
06:10 PM 60.6°F15.9°C 53.7°F12.1°C 78% 9.2 mph NW14.8 kmh NW 16.1 mph25.9 kmh 29.85 in1010.8 mb - 0.00 in0.0 mm 0.08 in2.0 mm
06:00 PM 60.2°F15.7°C 53.7°F12.1°C 79% 8.1 mph NW13.0 kmh NW 19.6 mph31.5 kmh 29.84 in1010.5 mb - 0.00 in0.0 mm 0.08 in2.0 mm
05:50 PM 60.6°F15.9°C 53.3°F11.8°C 77% 12.7 mph WNW20.4 kmh WNW 23.0 mph37.0 kmh 29.84 in1010.5 mb - 0.00 in0.0 mm 0.08 in2.0 mm
05:40 PM 60.7°F15.9°C 53.4°F11.9°C 77% 13.8 mph NW22.2 kmh NW 23.0 mph37.0 kmh 29.84 in1010.5 mb - 0.00 in0.0 mm 0.08 in2.0 mm
05:30 PM 60.8°F16.0°C 53.9°F12.2°C 78% 10.4 mph WNW16.7 kmh WNW 20.7 mph33.3 kmh 29.83 in1010.2 mb - 0.00 in0.0 mm 0.08 in2.0 mm
05:20 PM 61.3°F16.3°C 54.0°F12.2°C 77% 9.2 mph WNW14.8 kmh WNW 12.7 mph20.4 kmh 29.82 in1009.8 mb - 0.00 in0.0 mm 0.08 in2.0 mm
05:10 PM 62.0°F16.7°C 54.3°F12.4°C 76% 12.7 mph WNW20.4 kmh WNW 23.0 mph37.0 kmh 29.82 in1009.8 mb - 0.00 in0.0 mm 0.08 in2.0 mm
05:00 PM 62.3°F16.8°C 54.3°F12.4°C 75% 9.2 mph WNW14.8 kmh WNW 16.1 mph25.9 kmh 29.81 in1009.5 mb - 0.00 in0.0 mm 0.08 in2.0 mm
04:50 PM 62.1°F16.7°C 54.4°F12.4°C 76% 16.1 mph NW25.9 kmh NW 25.3 mph40.7 kmh 29.81 in1009.5 mb - 0.00 in0.0 mm 0.08 in2.0 mm
04:40 PM 61.6°F16.4°C 54.3°F12.4°C 77% 11.5 mph WNW18.5 kmh WNW 20.7 mph33.3 kmh 29.80 in1009.1 mb - 0.00 in0.0 mm 0.08 in2.0 mm
04:30 PM 61.7°F16.5°C 54.4°F12.4°C 77% 8.1 mph WNW13.0 kmh WNW 13.8 mph22.2 kmh 29.80 in1009.1 mb - 0.00 in0.0 mm 0.08 in2.0 mm
04:20 PM 61.4°F16.3°C 55.2°F12.9°C 80% 13.8 mph WNW22.2 kmh WNW 21.9 mph35.2 kmh 29.80 in1009.1 mb - 0.00 in0.0 mm 0.08 in2.0 mm
04:10 PM 61.5°F16.4°C 54.9°F12.7°C 79% 9.2 mph WNW14.8 kmh WNW 18.4 mph29.6 kmh 29.79 in1008.8 mb - 0.00 in0.0 mm 0.08 in2.0 mm
04:00 PM 62.2°F16.8°C 54.9°F12.7°C 77% 11.5 mph WNW18.5 kmh WNW 20.7 mph33.3 kmh 29.79 in1008.8 mb - 0.00 in0.0 mm 0.08 in2.0 mm
03:50 PM 61.5°F16.4°C 54.6°F12.6°C 78% 15.0 mph WNW24.1 kmh WNW 23.0 mph37.0 kmh 29.78 in1008.5 mb - 0.00 in0.0 mm 0.08 in2.0 mm
03:40 PM 59.9°F15.5°C 55.0°F12.8°C 84% 10.4 mph W16.7 kmh W 16.1 mph25.9 kmh 29.78 in1008.5 mb - 0.00 in0.0 mm 0.08 in2.0 mm
03:30 PM 59.7°F15.4°C 54.9°F12.7°C 84% 9.2 mph WNW14.8 kmh WNW 16.1 mph25.9 kmh 29.78 in1008.5 mb - 0.00 in0.0 mm 0.08 in2.0 mm
03:20 PM 59.5°F15.3°C 54.3°F12.4°C 83% 9.2 mph WNW14.8 kmh WNW 16.1 mph25.9 kmh 29.78 in1008.5 mb - 0.00 in0.0 mm 0.08 in2.0 mm
03:10 PM 59.1°F15.1°C 54.6°F12.6°C 85% 8.1 mph WNW13.0 kmh WNW 11.5 mph18.5 kmh 29.77 in1008.1 mb - 0.00 in0.0 mm 0.08 in2.0 mm
03:00 PM 58.1°F14.5°C 53.6°F12.0°C 85% 8.1 mph W13.0 kmh W 12.7 mph20.4 kmh 29.77 in1008.1 mb - 0.00 in0.0 mm 0.08 in2.0 mm
02:50 PM 57.9°F14.4°C 53.4°F11.9°C 85% 10.4 mph W16.7 kmh W 19.6 mph31.5 kmh 29.77 in1008.1 mb - 0.00 in0.0 mm 0.08 in2.0 mm
02:40 PM 57.6°F14.2°C 53.4°F11.9°C 86% 10.4 mph W16.7 kmh W 19.6 mph31.5 kmh 29.77 in1008.1 mb - 0.00 in0.0 mm 0.08 in2.0 mm
02:30 PM 56.6°F13.7°C 52.5°F11.4°C 86% 9.2 mph W14.8 kmh W 16.1 mph25.9 kmh 29.78 in1008.5 mb - 0.00 in0.0 mm 0.08 in2.0 mm
02:20 PM 56.3°F13.5°C 52.2°F11.2°C 86% 8.1 mph WNW13.0 kmh WNW 12.7 mph20.4 kmh 29.78 in1008.5 mb - 0.01 in0.3 mm 0.08 in2.0 mm
02:10 PM 56.0°F13.3°C 51.9°F11.1°C 86% 10.4 mph WSW16.7 kmh WSW 16.1 mph25.9 kmh 29.79 in1008.8 mb - 0.00 in0.0 mm 0.07 in1.8 mm
02:00 PM 55.8°F13.2°C 51.4°F10.8°C 85% 4.6 mph WSW7.4 kmh WSW 9.2 mph14.8 kmh 29.79 in1008.8 mb - 0.01 in0.3 mm 0.07 in1.8 mm
01:50 PM 55.8°F13.2°C 51.4°F10.8°C 85% 9.2 mph WNW14.8 kmh WNW 16.1 mph25.9 kmh 29.80 in1009.1 mb - 0.00 in0.0 mm 0.06 in1.5 mm
01:40 PM 56.1°F13.4°C 51.7°F10.9°C 85% 3.5 mph WNW5.6 kmh WNW 5.8 mph9.3 kmh 29.80 in1009.1 mb - 0.01 in0.3 mm 0.06 in1.5 mm
01:30 PM 56.4°F13.6°C 51.6°F10.9°C 84% 4.6 mph W7.4 kmh W 8.1 mph13.0 kmh 29.80 in1009.1 mb - 0.02 in0.5 mm 0.05 in1.3 mm
01:20 PM 57.6°F14.2°C 51.4°F10.8°C 80% 6.9 mph WNW11.1 kmh WNW 11.5 mph18.5 kmh 29.80 in1009.1 mb - 0.03 in0.8 mm 0.04 in1.0 mm
01:10 PM 58.8°F14.9°C 51.6°F10.9°C 77% 4.6 mph WNW7.4 kmh WNW 8.1 mph13.0 kmh 29.80 in1009.1 mb - 0.00 in0.0 mm 0.01 in0.3 mm
01:00 PM 59.6°F15.3°C 50.9°F10.5°C 73% 8.1 mph W13.0 kmh W 13.8 mph22.2 kmh 29.79 in1008.8 mb - 0.00 in0.0 mm 0.01 in0.3 mm
12:50 PM 60.7°F15.9°C 50.5°F10.3°C 69% 10.4 mph WNW16.7 kmh WNW 19.6 mph31.5 kmh 29.79 in1008.8 mb - 0.00 in0.0 mm 0.01 in0.3 mm
12:40 PM 61.3°F16.3°C 51.0°F10.6°C 69% 6.9 mph W11.1 kmh W 9.2 mph14.8 kmh 29.79 in1008.8 mb - 0.00 in0.0 mm 0.01 in0.3 mm
12:30 PM 61.2°F16.2°C 50.9°F10.5°C 69% 5.8 mph WNW9.3 kmh WNW 9.2 mph14.8 kmh 29.79 in1008.8 mb - 0.00 in0.0 mm 0.01 in0.3 mm
12:20 PM 61.2°F16.2°C 50.2°F10.1°C 67% 10.4 mph W16.7 kmh W 18.4 mph29.6 kmh 29.79 in1008.8 mb - 0.00 in0.0 mm 0.01 in0.3 mm
12:10 PM 61.7°F16.5°C 50.2°F10.1°C 66% 11.5 mph WNW18.5 kmh WNW 19.6 mph31.5 kmh 29.79 in1008.8 mb - 0.00 in0.0 mm 0.01 in0.3 mm
12:00 PM 62.1°F16.7°C 51.4°F10.8°C 68% 9.2 mph W14.8 kmh W 12.7 mph20.4 kmh 29.79 in1008.8 mb - 0.00 in0.0 mm 0.01 in0.3 mm
11:50 AM 62.2°F16.8°C 51.9°F11.1°C 69% 10.4 mph W16.7 kmh W 15.0 mph24.1 kmh 29.79 in1008.8 mb - 0.00 in0.0 mm 0.01 in0.3 mm
11:40 AM 61.2°F16.2°C 51.3°F10.7°C 70% 11.5 mph W18.5 kmh W 19.6 mph31.5 kmh 29.79 in1008.8 mb - 0.00 in0.0 mm 0.01 in0.3 mm
11:30 AM 60.3°F15.7°C 50.9°F10.5°C 71% 5.8 mph WNW9.3 kmh WNW 11.5 mph18.5 kmh 29.80 in1009.1 mb - 0.00 in0.0 mm 0.01 in0.3 mm
11:20 AM 60.6°F15.9°C 51.1°F10.6°C 71% 10.4 mph WNW16.7 kmh WNW 16.1 mph25.9 kmh 29.80 in1009.1 mb - 0.00 in0.0 mm 0.01 in0.3 mm
11:10 AM 60.0°F15.6°C 50.6°F10.3°C 71% 9.2 mph W14.8 kmh W 16.1 mph25.9 kmh 29.80 in1009.1 mb - 0.00 in0.0 mm 0.01 in0.3 mm
11:00 AM 60.1°F15.6°C 49.9°F9.9°C 69% 11.5 mph WNW18.5 kmh WNW 19.6 mph31.5 kmh 29.80 in1009.1 mb - 0.00 in0.0 mm 0.01 in0.3 mm
10:50 AM 59.9°F15.5°C 50.1°F10.1°C 70% 9.2 mph W14.8 kmh W 15.0 mph24.1 kmh 29.80 in1009.1 mb - 0.00 in0.0 mm 0.01 in0.3 mm
10:40 AM 59.8°F15.4°C 50.7°F10.4°C 72% 3.5 mph WNW5.6 kmh WNW 5.8 mph9.3 kmh 29.80 in1009.1 mb - 0.00 in0.0 mm 0.01 in0.3 mm
10:30 AM 59.2°F15.1°C 50.2°F10.1°C 72% 5.8 mph W9.3 kmh W 11.5 mph18.5 kmh 29.81 in1009.5 mb - 0.00 in0.0 mm 0.01 in0.3 mm
10:20 AM 59.3°F15.2°C 49.5°F9.7°C 70% 9.2 mph WNW14.8 kmh WNW 16.1 mph25.9 kmh 29.81 in1009.5 mb - 0.00 in0.0 mm 0.01 in0.3 mm
10:10 AM 59.5°F15.3°C 49.7°F9.8°C 70% 8.1 mph WNW13.0 kmh WNW 12.7 mph20.4 kmh 29.81 in1009.5 mb - 0.00 in0.0 mm 0.01 in0.3 mm
10:00 AM 59.5°F15.3°C 50.4°F10.2°C 72% 5.8 mph W9.3 kmh W 9.2 mph14.8 kmh 29.81 in1009.5 mb - 0.00 in0.0 mm 0.01 in0.3 mm
09:50 AM 58.7°F14.8°C 49.7°F9.8°C 72% 8.1 mph W13.0 kmh W 13.8 mph22.2 kmh 29.81 in1009.5 mb - 0.00 in0.0 mm 0.01 in0.3 mm
09:40 AM 58.5°F14.7°C 50.2°F10.1°C 74% 5.8 mph WSW9.3 kmh WSW 11.5 mph18.5 kmh 29.81 in1009.5 mb - 0.00 in0.0 mm 0.01 in0.3 mm
09:30 AM 58.2°F14.6°C 50.0°F10.0°C 74% 9.2 mph WNW14.8 kmh WNW 13.8 mph22.2 kmh 29.81 in1009.5 mb - 0.00 in0.0 mm 0.01 in0.3 mm
09:20 AM 58.4°F14.7°C 50.1°F10.1°C 74% 6.9 mph W11.1 kmh W 11.5 mph18.5 kmh 29.81 in1009.5 mb - 0.00 in0.0 mm 0.01 in0.3 mm
09:10 AM 58.0°F14.4°C 49.8°F9.9°C 74% 10.4 mph WNW16.7 kmh WNW 16.1 mph25.9 kmh 29.81 in1009.5 mb - 0.00 in0.0 mm 0.01 in0.3 mm
09:00 AM 57.2°F14.0°C 49.4°F9.7°C 75% 8.1 mph W13.0 kmh W 13.8 mph22.2 kmh 29.81 in1009.5 mb - 0.00 in0.0 mm 0.01 in0.3 mm
08:50 AM 57.1°F13.9°C 49.2°F9.6°C 75% 8.1 mph WNW13.0 kmh WNW 12.7 mph20.4 kmh 29.80 in1009.1 mb - 0.00 in0.0 mm 0.01 in0.3 mm
08:40 AM 57.0°F13.9°C 49.5°F9.7°C 76% 6.9 mph W11.1 kmh W 11.5 mph18.5 kmh 29.81 in1009.5 mb - 0.00 in0.0 mm 0.01 in0.3 mm
08:30 AM 56.7°F13.7°C 49.9°F9.9°C 78% 4.6 mph W7.4 kmh W 8.1 mph13.0 kmh 29.81 in1009.5 mb - 0.00 in0.0 mm 0.01 in0.3 mm
08:20 AM 56.5°F13.6°C 50.0°F10.0°C 79% 5.8 mph W9.3 kmh W 8.1 mph13.0 kmh 29.81 in1009.5 mb - 0.00 in0.0 mm 0.01 in0.3 mm
08:10 AM 55.9°F13.3°C 49.8°F9.9°C 80% 5.8 mph W9.3 kmh W 12.7 mph20.4 kmh 29.81 in1009.5 mb - 0.00 in0.0 mm 0.01 in0.3 mm
08:00 AM 56.0°F13.3°C 49.9°F9.9°C 80% 2.3 mph W3.7 kmh W 8.1 mph13.0 kmh 29.81 in1009.5 mb - 0.00 in0.0 mm 0.01 in0.3 mm
07:50 AM 56.2°F13.4°C 50.1°F10.1°C 80% 4.6 mph WNW7.4 kmh WNW 8.1 mph13.0 kmh 29.80 in1009.1 mb - 0.00 in0.0 mm 0.01 in0.3 mm
07:40 AM 55.5°F13.1°C 50.1°F10.1°C 82% 3.5 mph W5.6 kmh W 5.8 mph9.3 kmh 29.80 in1009.1 mb - 0.00 in0.0 mm 0.01 in0.3 mm
07:30 AM 55.0°F12.8°C 49.6°F9.8°C 82% 4.6 mph WNW7.4 kmh WNW 9.2 mph14.8 kmh 29.80 in1009.1 mb - 0.00 in0.0 mm 0.01 in0.3 mm
07:20 AM 54.6°F12.6°C 49.6°F9.8°C 83% 6.9 mph W11.1 kmh W 12.7 mph20.4 kmh 29.80 in1009.1 mb - 0.00 in0.0 mm 0.01 in0.3 mm
07:10 AM 54.3°F12.4°C 49.2°F9.6°C 83% 8.1 mph W13.0 kmh W 12.7 mph20.4 kmh 29.80 in1009.1 mb - 0.00 in0.0 mm 0.01 in0.3 mm
07:00 AM 53.9°F12.2°C 49.2°F9.6°C 84% 4.6 mph WSW7.4 kmh WSW 8.1 mph13.0 kmh 29.80 in1009.1 mb - 0.00 in0.0 mm 0.01 in0.3 mm
06:50 AM 53.4°F11.9°C 48.7°F9.3°C 84% 5.8 mph WNW9.3 kmh WNW 9.2 mph14.8 kmh 29.80 in1009.1 mb - 0.00 in0.0 mm 0.01 in0.3 mm
06:40 AM 52.8°F11.6°C 48.4°F9.1°C 85% 3.5 mph WNW5.6 kmh WNW 6.9 mph11.1 kmh 29.80 in1009.1 mb - 0.00 in0.0 mm 0.01 in0.3 mm
06:30 AM 52.1°F11.2°C 48.1°F8.9°C 86% 4.6 mph W7.4 kmh W 8.1 mph13.0 kmh 29.80 in1009.1 mb - 0.00 in0.0 mm 0.01 in0.3 mm
06:20 AM 51.6°F10.9°C 47.6°F8.7°C 86% 2.3 mph W3.7 kmh W 6.9 mph11.1 kmh 29.80 in1009.1 mb - 0.00 in0.0 mm 0.01 in0.3 mm
06:10 AM 51.0°F10.6°C 47.3°F8.5°C 87% 2.3 mph W3.7 kmh W 6.9 mph11.1 kmh 29.80 in1009.1 mb - 0.00 in0.0 mm 0.01 in0.3 mm
06:00 AM 50.5°F10.3°C 46.8°F8.2°C 87% 2.3 mph W3.7 kmh W 5.8 mph9.3 kmh 29.79 in1008.8 mb - 0.00 in0.0 mm 0.01 in0.3 mm
05:50 AM 50.2°F10.1°C 46.5°F8.1°C 87% Calm Calm 1.2 mph1.9 kmh 29.80 in1009.1 mb - 0.00 in0.0 mm 0.01 in0.3 mm
05:40 AM 49.9°F9.9°C 46.2°F7.9°C 87% 3.5 mph W5.6 kmh W 5.8 mph9.3 kmh 29.80 in1009.1 mb - 0.00 in0.0 mm 0.01 in0.3 mm
05:30 AM 49.8°F9.9°C 45.8°F7.7°C 86% 1.2 mph WNW1.9 kmh WNW 4.6 mph7.4 kmh 29.80 in1009.1 mb - 0.00 in0.0 mm 0.01 in0.3 mm
05:20 AM 50.1°F10.1°C 46.1°F7.8°C 86% 1.2 mph WSW1.9 kmh WSW 2.3 mph3.7 kmh 29.79 in1008.8 mb - 0.00 in0.0 mm 0.01 in0.3 mm
05:10 AM 50.5°F10.3°C 46.5°F8.1°C 86% Calm Calm -- 29.79 in1008.8 mb - 0.00 in0.0 mm 0.01 in0.3 mm
05:00 AM 50.5°F10.3°C 46.5°F8.1°C 86% 2.3 mph W3.7 kmh W 4.6 mph7.4 kmh 29.79 in1008.8 mb - 0.00 in0.0 mm 0.01 in0.3 mm
04:50 AM 50.6°F10.3°C 46.6°F8.1°C 86% 3.5 mph W5.6 kmh W 5.8 mph9.3 kmh 29.79 in1008.8 mb - 0.00 in0.0 mm 0.01 in0.3 mm
04:40 AM 50.9°F10.5°C 46.9°F8.3°C 86% 1.2 mph SW1.9 kmh SW 2.3 mph3.7 kmh 29.79 in1008.8 mb - 0.01 in0.3 mm 0.01 in0.3 mm
04:30 AM 51.2°F10.7°C 46.8°F8.2°C 85% 1.2 mph SSW1.9 kmh SSW 5.8 mph9.3 kmh 29.79 in1008.8 mb - 0.00 in0.0 mm 0.00 in0.0 mm
04:20 AM 51.4°F10.8°C 47.4°F8.6°C 86% 1.2 mph WNW1.9 kmh WNW 2.3 mph3.7 kmh 29.78 in1008.5 mb - 0.00 in0.0 mm 0.00 in0.0 mm
04:10 AM 51.4°F10.8°C 47.4°F8.6°C 86% 3.5 mph WNW5.6 kmh WNW 5.8 mph9.3 kmh 29.79 in1008.8 mb - 0.00 in0.0 mm 0.00 in0.0 mm
04:00 AM 51.5°F10.8°C 47.5°F8.6°C 86% 3.5 mph WNW5.6 kmh WNW 6.9 mph11.1 kmh 29.78 in1008.5 mb - 0.00 in0.0 mm 0.00 in0.0 mm
03:50 AM 51.6°F10.9°C 47.5°F8.6°C 86% 1.2 mph WNW1.9 kmh WNW 2.3 mph3.7 kmh 29.78 in1008.5 mb - 0.00 in0.0 mm 0.00 in0.0 mm
03:40 AM 51.6°F10.9°C 47.5°F8.6°C 86% 3.5 mph W5.6 kmh W 5.8 mph9.3 kmh 29.78 in1008.5 mb - 0.00 in0.0 mm 0.00 in0.0 mm
03:30 AM 51.7°F10.9°C 47.9°F8.8°C 87% 2.3 mph WNW3.7 kmh WNW 5.8 mph9.3 kmh 29.78 in1008.5 mb - 0.00 in0.0 mm 0.00 in0.0 mm
03:20 AM 51.7°F10.9°C 48.0°F8.9°C 87% 3.5 mph WSW5.6 kmh WSW 5.8 mph9.3 kmh 29.78 in1008.5 mb - 0.00 in0.0 mm 0.00 in0.0 mm
03:10 AM 51.9°F11.1°C 48.1°F8.9°C 87% 3.5 mph W5.6 kmh W 5.8 mph9.3 kmh 29.78 in1008.5 mb - 0.00 in0.0 mm 0.00 in0.0 mm
03:00 AM 51.8°F11.0°C 48.1°F8.9°C 87% 4.6 mph W7.4 kmh W 6.9 mph11.1 kmh 29.78 in1008.5 mb - 0.00 in0.0 mm 0.00 in0.0 mm
02:50 AM 52.0°F11.1°C 48.3°F9.1°C 87% 2.3 mph W3.7 kmh W 5.8 mph9.3 kmh 29.78 in1008.5 mb - 0.00 in0.0 mm 0.00 in0.0 mm
02:40 AM 52.1°F11.2°C 48.3°F9.1°C 87% 3.5 mph WSW5.6 kmh WSW 8.1 mph13.0 kmh 29.78 in1008.5 mb - 0.00 in0.0 mm 0.00 in0.0 mm
02:30 AM 52.2°F11.2°C 48.1°F8.9°C 86% 3.5 mph WSW5.6 kmh WSW 5.8 mph9.3 kmh 29.78 in1008.5 mb - 0.00 in0.0 mm 0.00 in0.0 mm
02:20 AM 52.4°F11.3°C 48.3°F9.1°C 86% 1.2 mph W1.9 kmh W 2.3 mph3.7 kmh 29.78 in1008.5 mb - 0.00 in0.0 mm 0.00 in0.0 mm
02:10 AM 52.5°F11.4°C 48.4°F9.1°C 86% Calm Calm -- 29.78 in1008.5 mb - 0.00 in0.0 mm 0.00 in0.0 mm
02:00 AM 52.4°F11.3°C 48.0°F8.9°C 85% Calm Calm -- 29.78 in1008.5 mb - 0.00 in0.0 mm 0.00 in0.0 mm
01:50 AM 52.6°F11.4°C 48.2°F9.0°C 85% Calm Calm -- 29.78 in1008.5 mb - 0.00 in0.0 mm 0.00 in0.0 mm
01:40 AM 52.5°F11.4°C 48.4°F9.1°C 86% 1.2 mph NW1.9 kmh NW 2.3 mph3.7 kmh 29.78 in1008.5 mb - 0.00 in0.0 mm 0.00 in0.0 mm
01:30 AM 52.2°F11.2°C 47.8°F8.8°C 85% Calm Calm -- 29.78 in1008.5 mb - 0.00 in0.0 mm 0.00 in0.0 mm
01:20 AM 52.3°F11.3°C 47.9°F8.8°C 85% 1.2 mph W1.9 kmh W 4.6 mph7.4 kmh 29.78 in1008.5 mb - 0.00 in0.0 mm 0.00 in0.0 mm
01:10 AM 52.5°F11.4°C 48.1°F8.9°C 85% 2.3 mph W3.7 kmh W 5.8 mph9.3 kmh 29.78 in1008.5 mb - 0.00 in0.0 mm 0.00 in0.0 mm
01:00 AM 52.8°F11.6°C 48.4°F9.1°C 85% 2.3 mph W3.7 kmh W 5.8 mph9.3 kmh 29.77 in1008.1 mb - 0.00 in0.0 mm 0.00 in0.0 mm
12:50 AM 52.9°F11.6°C 48.5°F9.2°C 85% 2.3 mph WSW3.7 kmh WSW 5.8 mph9.3 kmh 29.77 in1008.1 mb - 0.00 in0.0 mm 0.00 in0.0 mm
12:40 AM 53.4°F11.9°C 48.7°F9.3°C 84% 2.3 mph W3.7 kmh W 4.6 mph7.4 kmh 29.77 in1008.1 mb - 0.00 in0.0 mm 0.00 in0.0 mm
12:30 AM 54.5°F12.5°C 49.4°F9.7°C 83% 1.2 mph W1.9 kmh W 2.3 mph3.7 kmh 29.77 in1008.1 mb - 0.00 in0.0 mm 0.00 in0.0 mm
12:20 AM 55.1°F12.8°C 49.7°F9.8°C 82% 1.2 mph WSW1.9 kmh WSW 2.3 mph3.7 kmh 29.77 in1008.1 mb - 0.00 in0.0 mm 0.00 in0.0 mm
12:10 AM 55.2°F12.9°C 49.5°F9.7°C 81% 8.1 mph W13.0 kmh W 12.7 mph20.4 kmh 29.77 in1008.1 mb - 0.00 in0.0 mm 0.00 in0.0 mm
12:00 AM 54.6°F12.6°C 49.9°F9.9°C 84% 6.9 mph WNW11.1 kmh WNW 11.5 mph18.5 kmh 29.76 in1007.8 mb - 0.00 in0.0 mm 0.00 in0.0 mm